Terminal Aerodrome Forecast
Issued by NWS Columbia, SC

Home | Current Version | Previous Version | Text Only | Print | Product List | Glossary On
Versions: 1 2 3 4 5 6 7 8 9 10 11 12 13 14 15 16 17 18 19 20 21 22 23 24 25 26 27 28 29 30 31 32 33 34 35 36 37 38 39 40 41 42 43 44 45 46 47
000
FTAK31 PAJN 061700
TAFAGS
TAF
PAGS 061728Z 0618/0718 VRB03KT P6SM VCFG SCT006
     FM061900 22006KT P6SM FEW010
     FM062100 22010KT P6SM SKC
     FM070500 VRB03KT P6SM SKC
     FM070800 00000KT 6SM BCFG SCT005
     FM071100 00000KT 2SM BR OVC002
     FM071500 VRB03KT P6SM VCFG SCT006 BKN100
      AMD LTD TO CLD VIS AND WIND=

USA.gov is the U.S. government's official web portal to all federal, state and local government web resources and services.